Time;durP1;ratioP1;P1;durP2;ratioP2;P2;SDS_P1;SDS_P2;PMS_P1;PMS_P2;Temp;Humidity;BMP_temperature;BMP_pressure;BME280_temperature;BME280_humidity;BME280_pressure;Samples;Min_cycle;Max_cycle;Signal;HPM_P1;HPM_P2
2022/01/25 00:26:24;;;;;;;43.03;19.10;;;1.30;93.50;;;;;;5049945;28;20495;-47
2022/01/25 00:29:03;;;;;;;25.73;18.37;;;1.30;93.50;;;;;;5056129;28;21371;-46
2022/01/25 00:31:30;;;;;;;29.60;17.20;;;1.20;93.10;;;;;;5016966;28;20480;-48
2022/01/25 00:33:56;;;;;;;37.40;19.60;;;1.20;92.90;;;;;;5059227;28;20543;-47
2022/01/25 00:36:25;;;;;;;41.17;20.37;;;1.20;92.90;;;;;;5061877;28;20974;-47
2022/01/25 00:38:54;;;;;;;29.63;17.33;;;1.20;92.80;;;;;;5064572;28;20481;-47
2022/01/25 00:41:23;;;;;;;27.00;18.27;;;1.10;93.00;;;;;;5056483;28;20817;-45
2022/01/25 00:43:50;;;;;;;30.80;18.33;;;1.10;93.30;;;;;;5051790;28;20493;-45
2022/01/25 00:46:20;;;;;;;33.03;20.47;;;1.10;93.40;;;;;;5033731;28;20491;-46
2022/01/25 00:48:50;;;;;;;27.57;17.13;;;1.10;93.50;;;;;;5039988;28;20470;-48
2022/01/25 00:51:47;;;;;;;34.23;21.23;;;1.10;93.10;;;;;;5019431;28;21436;-45
2022/01/25 00:54:16;;;;;;;43.97;24.70;;;1.00;93.00;;;;;;5029910;28;20523;-45
2022/01/25 00:56:45;;;;;;;34.63;17.43;;;0.80;92.70;;;;;;5043013;28;20924;-45
2022/01/25 00:59:13;;;;;;;33.53;21.47;;;0.80;92.90;;;;;;5044332;28;20482;-45
2022/01/25 01:01:41;;;;;;;30.97;17.70;;;0.90;93.30;;;;;;5032600;28;20491;-45
2022/01/25 01:04:09;;;;;;;49.20;19.80;;;0.90;93.30;;;;;;5042885;28;20560;-45
2022/01/25 01:06:37;;;;;;;23.87;16.20;;;0.90;93.40;;;;;;5049141;28;21232;-45
2022/01/25 01:09:04;;;;;;;30.00;18.43;;;0.90;93.40;;;;;;5057006;28;20599;-46
2022/01/25 01:11:38;;;;;;;35.13;18.00;;;0.90;93.20;;;;;;5057185;28;20884;-46
2022/01/25 01:14:13;;;;;;;25.10;15.90;;;0.80;93.10;;;;;;5039372;28;20492;-45
2022/01/25 01:30:40;;;;;;;35.43;19.83;;;0.70;92.70;;;;;;5027912;28;20485;-45
2022/01/25 01:36:22;;;;;;;29.83;17.67;;;0.70;93.00;;;;;;5014027;28;20486;-46
2022/01/25 01:39:11;;;;;;;26.03;17.13;;;0.70;92.80;;;;;;5024194;28;20487;-46
2022/01/25 01:44:23;;;;;;;52.37;23.90;;;0.70;93.00;;;;;;5052401;28;20933;-45
2022/01/25 01:47:06;;;;;;;51.13;20.30;;;;;;;;;;5062650;28;20544;-45
2022/01/25 01:49:40;;;;;;;54.63;21.80;;;0.70;93.00;;;;;;5055407;28;21076;-45
2022/01/25 01:52:09;;;;;;;247.63;33.20;;;;;;;;;;5054072;28;20486;-45
2022/01/25 01:54:37;;;;;;;151.47;23.90;;;;;;;;;;5056384;28;21002;-46
2022/01/25 01:57:04;;;;;;;59.70;20.17;;;0.60;93.10;;;;;;5054687;28;20493;-46
2022/01/25 01:59:33;;;;;;;39.50;18.70;;;0.60;93.40;;;;;;5042876;28;20541;-46
2022/01/25 02:02:00;;;;;;;174.17;28.30;;;;;;;;;;5038815;28;20491;-46
2022/01/25 02:04:27;;;;;;;65.27;20.10;;;;;;;;;;5028003;28;20472;-46
2022/01/25 02:06:54;;;;;;;71.27;22.63;;;-1.30;92.90;;;;;;5031740;28;20491;-46
2022/01/25 02:09:21;;;;;;;303.97;36.90;;;;;;;;;;5034315;28;20541;-46
2022/01/25 02:11:48;;;;;;;205.73;28.07;;;;;;;;;;5026538;28;20540;-44
2022/01/25 02:14:16;;;;;;;305.00;34.87;;;;;;;;;;5025309;28;20910;-44
2022/01/25 02:17:01;;;;;;;158.10;22.77;;;;;;;;;;5045592;28;21259;-46
2022/01/25 02:25:05;;;;;;;205.67;31.10;;;;;;;;;;5034970;28;20500;-45
2022/01/25 02:27:32;;;;;;;158.37;21.03;;;;;;;;;;5071799;28;21017;-45
2022/01/25 02:29:59;;;;;;;176.83;26.83;;;;;;;;;;5046667;28;20532;-45
2022/01/25 02:32:26;;;;;;;168.50;22.60;;;;;;;;;;5067689;28;20490;-45
2022/01/25 02:34:53;;;;;;;295.57;33.20;;;;;;;;;;5045424;28;20860;-45
2022/01/25 02:37:22;;;;;;;336.80;32.97;;;;;;;;;;5070860;28;20495;-45
2022/01/25 02:39:49;;;;;;;246.73;29.53;;;;;;;;;;5075761;28;20479;-45
2022/01/25 02:42:17;;;;;;;316.90;33.33;;;;;;;;;;5051777;28;20488;-45
2022/01/25 02:44:45;;;;;;;292.67;32.90;;;;;;;;;;5071612;28;20555;-46
2022/01/25 02:49:57;;;;;;;258.37;28.57;;;;;;;;;;5055166;28;20480;-45
2022/01/25 02:52:26;;;;;;;146.47;21.87;;;;;;;;;;5063768;28;20484;-49
2022/01/25 02:54:53;;;;;;;165.97;23.07;;;;;;;;;;5065388;28;20902;-45
2022/01/25 02:57:20;;;;;;;329.33;35.53;;;;;;;;;;5049338;28;21053;-45
2022/01/25 02:59:47;;;;;;;274.20;28.07;;;;;;;;;;5071921;28;20544;-45
2022/01/25 03:02:15;;;;;;;455.87;43.77;;;;;;;;;;5053582;28;20894;-45
2022/01/25 03:04:42;;;;;;;208.80;24.27;;;;;;;;;;5054641;28;20492;-46
2022/01/25 03:07:09;;;;;;;309.37;32.17;;;;;;;;;;5071312;28;20477;-45
2022/01/25 03:09:39;;;;;;;174.10;22.57;;;;;;;;;;5067610;28;20497;-46
2022/01/25 03:12:09;;;;;;;288.03;34.47;;;0.10;93.40;;;;;;5054964;28;20513;-46
2022/01/25 03:14:47;;;;;;;145.43;21.73;;;;;;;;;;5064738;28;20480;-46
2022/01/25 03:17:24;;;;;;;433.97;44.53;;;;;;;;;;5051872;28;20943;-46
2022/01/25 03:20:03;;;;;;;270.57;29.63;;;;;;;;;;5052173;28;20496;-46
2022/01/25 03:22:44;;;;;;;74.43;17.60;;;;;;;;;;5050315;28;20512;-46
2022/01/25 03:25:13;;;;;;;400.33;42.97;;;;;;;;;;5045412;28;20489;-46
2022/01/25 03:27:40;;;;;;;178.47;23.30;;;;;;;;;;5075749;28;20479;-46
2022/01/25 03:30:07;;;;;;;362.23;38.63;;;;;;;;;;5055574;28;20510;-46
2022/01/25 03:32:34;;;;;;;221.83;26.43;;;;;;;;;;5052124;28;20496;-46
2022/01/25 03:35:01;;;;;;;227.33;26.53;;;;;;;;;;5055197;28;20548;-46
2022/01/25 03:37:28;;;;;;;128.03;19.27;;;;;;;;;;5060859;28;21230;-46
2022/01/25 03:39:55;;;;;;;252.00;29.23;;;;;;;;;;5053495;28;20487;-46
2022/01/25 03:42:25;;;;;;;288.33;28.20;;;;;;;;;;5055692;28;20558;-46
2022/01/25 03:44:52;;;;;;;166.57;22.83;;;;;;;;;;5055205;28;20493;-46
2022/01/25 03:47:30;;;;;;;340.40;35.03;;;;;;;;;;5047651;28;20989;-47
2022/01/25 03:49:56;;;;;;;145.73;21.80;;;;;;;;;;5049839;28;20624;-46
2022/01/25 03:52:32;;;;;;;192.33;23.30;;;;;;;;;;5053502;28;20480;-46
2022/01/25 03:54:59;;;;;;;307.60;32.60;;;;;;;;;;5060371;28;20490;-46
2022/01/25 03:57:27;;;;;;;245.87;29.33;;;;;;;;;;5059871;28;20540;-46
2022/01/25 03:59:55;;;;;;;204.40;24.37;;;;;;;;;;5043391;28;20493;-47
2022/01/25 04:02:22;;;;;;;266.30;28.77;;;;;;;;;;5019154;28;20478;-46
2022/01/25 04:04:50;;;;;;;101.67;24.50;;;;;;;;;;5033103;28;20858;-46
2022/01/25 04:07:26;;;;;;;453.60;43.93;;;;;;;;;;5030995;28;20565;-46
2022/01/25 04:09:53;;;;;;;308.87;29.60;;;;;;;;;;5031945;28;20589;-46
2022/01/25 04:12:20;;;;;;;339.83;38.80;;;;;;;;;;5019064;28;20481;-46
2022/01/25 04:14:49;;;;;;;197.27;24.43;;;;;;;;;;5034319;28;20489;-46
2022/01/25 04:17:19;;;;;;;351.47;34.60;;;;;;;;;;5056393;28;20514;-46
2022/01/25 04:20:11;;;;;;;296.70;29.73;;;;;;;;;;5052424;27;20521;-46
2022/01/25 04:25:18;;;;;;;106.03;26.53;;;-1.00;92.90;;;;;;5058384;28;20480;-46
2022/01/25 04:27:44;;;;;;;73.93;20.07;;;-1.00;93.20;;;;;;5057777;28;20477;-46
2022/01/25 04:30:13;;;;;;;101.33;28.23;;;-0.90;93.50;;;;;;5059733;28;20480;-45
2022/01/25 04:32:47;;;;;;;47.00;21.40;;;-0.90;93.60;;;;;;5055051;28;20882;-46
2022/01/25 04:35:29;;;;;;;55.07;22.93;;;-0.80;93.80;;;;;;5066379;28;20475;-46
2022/01/25 04:49:06;;;;;;;25.10;16.03;;;-0.50;93.50;;;;;;5025176;28;22173;-46
2022/01/25 04:51:45;;;;;;;20.77;13.90;;;-0.50;93.40;;;;;;5024187;28;20482;-46
2022/01/25 04:54:19;;;;;;;28.13;17.30;;;-0.50;93.20;;;;;;5014585;28;20485;-46
2022/01/25 04:56:54;;;;;;;32.73;19.30;;;-0.50;93.30;;;;;;5046658;28;21012;-47
2022/01/25 04:59:26;;;;;;;40.63;20.10;;;-0.50;92.90;;;;;;5056303;28;20535;-46
2022/01/25 05:02:01;;;;;;;27.23;17.50;;;-0.50;92.60;;;;;;5054273;28;21368;-46
2022/01/25 05:04:32;;;;;;;25.97;15.87;;;-0.50;92.30;;;;;;5057208;28;21007;-46
2022/01/25 05:07:09;;;;;;;30.23;16.63;;;-0.50;92.30;;;;;;5039073;28;20558;-46
2022/01/25 05:09:37;;;;;;;36.60;17.53;;;-0.50;92.00;;;;;;5062139;28;20492;-46
2022/01/25 05:12:05;;;;;;;29.20;17.23;;;-0.70;92.00;;;;;;5050640;28;20514;-46
2022/01/25 05:14:35;;;;;;;28.03;16.50;;;-0.70;92.30;;;;;;5060775;28;21051;-46
2022/01/25 05:17:05;;;;;;;31.90;17.30;;;-0.70;92.10;;;;;;5063393;28;21405;-46
2022/01/25 05:22:24;;;;;;;27.57;17.73;;;-0.70;92.10;;;;;;5055878;28;20507;-46
2022/01/25 05:24:52;;;;;;;31.40;16.27;;;-0.70;91.90;;;;;;5056747;28;21043;-46
2022/01/25 05:27:22;;;;;;;28.13;17.63;;;-0.70;92.00;;;;;;5048420;28;20499;-45
2022/01/25 05:29:50;;;;;;;28.90;16.00;;;-0.70;92.40;;;;;;5055118;28;20995;-50
2022/01/25 05:32:18;;;;;;;24.63;16.63;;;-0.80;92.50;;;;;;5060596;28;20488;-45
2022/01/25 05:34:45;;;;;;;24.30;14.10;;;-0.90;92.60;;;;;;5055486;28;20485;-46
2022/01/25 05:37:12;;;;;;;38.03;19.00;;;-1.00;93.20;;;;;;5057162;28;21348;-45
2022/01/25 05:39:39;;;;;;;27.60;17.73;;;-0.90;93.20;;;;;;5057752;28;21110;-46
2022/01/25 05:42:29;;;;;;;32.30;16.67;;;-0.90;93.00;;;;;;5059097;28;20485;-48
2022/01/25 05:45:00;;;;;;;28.63;16.10;;;-0.90;92.20;;;;;;5059561;28;20482;-46
2022/01/25 05:47:30;;;;;;;23.80;14.47;;;-0.90;92.40;;;;;;5050624;28;20486;-46
2022/01/25 05:49:58;;;;;;;24.23;15.37;;;-0.90;92.30;;;;;;5058325;28;20478;-46
2022/01/25 05:52:25;;;;;;;21.90;14.40;;;-0.90;92.10;;;;;;5068252;28;20480;-46
2022/01/25 05:54:53;;;;;;;26.77;14.60;;;-0.90;92.20;;;;;;5055993;28;20482;-46
2022/01/25 05:57:20;;;;;;;26.33;13.77;;;-0.90;92.50;;;;;;5041983;28;20485;-46
2022/01/25 05:59:47;;;;;;;23.53;15.30;;;-0.80;92.80;;;;;;5068996;28;20485;-46
2022/01/25 06:02:17;;;;;;;25.30;16.60;;;-0.80;92.90;;;;;;5061083;28;20528;-46
2022/01/25 06:04:47;;;;;;;35.13;20.30;;;-0.90;93.30;;;;;;5054253;28;20468;-46
2022/01/25 06:07:13;;;;;;;38.70;17.97;;;-0.90;93.70;;;;;;5041443;28;20875;-46
2022/01/25 06:09:41;;;;;;;37.90;17.30;;;-0.80;93.70;;;;;;5054976;28;20476;-46
2022/01/25 06:12:10;;;;;;;24.37;16.50;;;-0.70;93.50;;;;;;5033226;28;23005;-45
2022/01/25 06:14:36;;;;;;;29.17;14.73;;;-0.70;93.30;;;;;;5031781;28;21156;-46
2022/01/25 06:17:04;;;;;;;29.10;15.20;;;-0.60;92.90;;;;;;5025352;28;20491;-45
2022/01/25 06:19:30;;;;;;;28.40;14.93;;;-0.60;92.90;;;;;;5040266;28;20821;-46
2022/01/25 06:21:58;;;;;;;27.27;15.67;;;-0.50;93.00;;;;;;5021575;28;20493;-46
2022/01/25 06:24:25;;;;;;;28.30;16.17;;;-0.50;93.10;;;;;;5030505;28;20539;-47
2022/01/25 06:26:52;;;;;;;28.50;16.73;;;-0.40;93.30;;;;;;5027873;28;20827;-46
2022/01/25 06:29:19;;;;;;;31.70;16.53;;;-0.30;93.40;;;;;;5027838;28;20530;-46
2022/01/25 06:31:47;;;;;;;28.57;15.97;;;-0.40;93.40;;;;;;5034367;28;20478;-46
2022/01/25 06:34:15;;;;;;;26.87;15.70;;;-0.50;93.50;;;;;;5029879;28;20502;-46
2022/01/25 06:36:41;;;;;;;28.27;16.20;;;-0.60;93.70;;;;;;5020139;28;20482;-46
2022/01/25 06:39:10;;;;;;;87.63;29.20;;;-0.60;94.20;;;;;;5046491;28;20485;-46
2022/01/25 06:41:37;;;;;;;77.20;28.40;;;-0.60;94.50;;;;;;5039563;28;20477;-46
2022/01/25 06:44:05;;;;;;;301.53;102.47;;;;;;;;;;5024743;28;21183;-46
2022/01/25 06:46:32;;;;;;;107.90;45.20;;;-0.40;94.30;;;;;;5033714;28;20481;-45
2022/01/25 06:48:59;;;;;;;63.43;28.47;;;-0.30;94.30;;;;;;5040726;28;20530;-46
2022/01/25 06:51:26;;;;;;;47.37;21.50;;;;;;;;;;5026352;28;20491;-45
2022/01/25 06:53:53;;;;;;;50.20;23.00;;;-0.10;94.30;;;;;;5023963;28;20545;-45
2022/01/25 06:56:21;;;;;;;45.17;21.07;;;-0.10;94.40;;;;;;5028792;28;21002;-45
2022/01/25 06:58:47;;;;;;;76.63;26.47;;;0.00;94.50;;;;;;5031449;28;20476;-45
2022/01/25 07:01:14;;;;;;;70.73;22.33;;;0.00;94.40;;;;;;5033099;28;20471;-45
2022/01/25 07:03:41;;;;;;;43.10;20.80;;;0.10;94.40;;;;;;5024309;28;20489;-45
2022/01/25 07:06:08;;;;;;;46.93;20.70;;;;;;;;;;5022296;28;21100;-45
2022/01/25 07:08:35;;;;;;;47.60;21.20;;;0.30;94.40;;;;;;5032872;28;20484;-45
2022/01/25 07:11:01;;;;;;;49.73;22.30;;;0.30;94.30;;;;;;5035931;28;20489;-46
2022/01/25 07:13:29;;;;;;;51.33;22.23;;;0.40;94.30;;;;;;5026441;28;20484;-45
2022/01/25 07:15:56;;;;;;;63.17;26.27;;;0.40;94.20;;;;;;5029828;28;20562;-45
2022/01/25 07:18:23;;;;;;;51.53;23.27;;;0.40;94.40;;;;;;5053339;28;21110;-45
2022/01/25 07:20:50;;;;;;;43.90;23.70;;;;;;;;;;5058751;28;20485;-45
2022/01/25 07:23:16;;;;;;;51.40;23.90;;;0.40;94.20;;;;;;5059347;28;20486;-46
2022/01/25 07:25:43;;;;;;;35.77;20.40;;;0.40;94.20;;;;;;5040443;28;20534;-45
2022/01/25 07:28:10;;;;;;;65.83;24.17;;;0.40;94.30;;;;;;5058190;28;20491;-45
2022/01/25 07:30:38;;;;;;;54.57;22.70;;;0.50;94.50;;;;;;5062603;28;20481;-45
2022/01/25 07:33:07;;;;;;;76.43;27.10;;;0.30;94.30;;;;;;5046971;28;20851;-46
2022/01/25 07:35:34;;;;;;;104.00;26.87;;;0.10;95.00;;;;;;5072553;28;20543;-45
2022/01/25 07:38:00;;;;;;;119.97;27.50;;;0.00;95.10;;;;;;5050797;28;20551;-45
2022/01/25 07:40:27;;;;;;;139.07;34.17;;;-0.10;95.20;;;;;;5050778;28;20477;-45
2022/01/25 07:42:54;;;;;;;185.40;33.03;;;-0.20;95.50;;;;;;5068799;28;20528;-45
2022/01/25 07:45:22;;;;;;;174.47;31.70;;;-0.20;95.80;;;;;;5042062;28;21334;-45
2022/01/25 07:47:50;;;;;;;104.63;26.70;;;-0.30;95.90;;;;;;5050854;28;20472;-45
2022/01/25 07:50:16;;;;;;;109.23;26.97;;;-0.10;96.20;;;;;;5043503;28;20542;-44
2022/01/25 07:52:43;;;;;;;115.40;29.87;;;0.00;96.00;;;;;;5059312;28;20964;-45
2022/01/25 07:55:11;;;;;;;78.00;20.40;;;0.00;96.00;;;;;;5048483;28;20491;-45
2022/01/25 07:57:38;;;;;;;57.07;18.17;;;0.20;96.00;;;;;;5054068;28;20488;-45
2022/01/25 08:00:06;;;;;;;79.70;22.43;;;0.30;95.90;;;;;;5068056;28;20493;-45
2022/01/25 08:02:33;;;;;;;71.70;22.83;;;0.40;95.90;;;;;;5046682;28;20533;-45
2022/01/25 08:05:01;;;;;;;70.23;21.03;;;0.50;95.60;;;;;;5059267;28;20530;-45
2022/01/25 08:07:28;;;;;;;115.20;25.43;;;0.50;95.70;;;;;;5053481;28;20480;-45
2022/01/25 08:09:54;;;;;;;118.23;23.77;;;0.50;95.80;;;;;;5054651;28;20500;-45
2022/01/25 08:12:21;;;;;;;136.67;27.77;;;0.60;95.80;;;;;;5051302;28;20572;-45
2022/01/25 08:14:48;;;;;;;139.00;30.20;;;0.60;95.40;;;;;;5055969;28;20482;-45
2022/01/25 08:17:16;;;;;;;128.53;28.87;;;0.50;95.40;;;;;;5053640;28;20481;-46
2022/01/25 08:19:44;;;;;;;140.23;28.40;;;0.40;95.60;;;;;;5052231;28;20569;-45
2022/01/25 08:22:12;;;;;;;47.30;20.10;;;0.30;95.80;;;;;;5041381;28;20471;-45
2022/01/25 08:24:39;;;;;;;75.50;20.40;;;0.30;95.90;;;;;;5047988;28;20489;-45
2022/01/25 08:27:06;;;;;;;151.93;27.53;;;0.20;96.20;;;;;;5051467;28;20493;-45
2022/01/25 08:29:33;;;;;;;179.63;27.67;;;0.10;96.30;;;;;;5050909;28;20481;-45
2022/01/25 08:32:00;;;;;;;232.33;31.73;;;0.00;96.50;;;;;;5049959;28;20489;-46
2022/01/25 08:34:26;;;;;;;213.33;30.73;;;-0.20;96.60;;;;;;5047697;28;20484;-46
2022/01/25 08:36:53;;;;;;;67.07;20.10;;;-0.20;96.70;;;;;;5063090;28;20508;-47
2022/01/25 08:39:22;;;;;;;95.57;21.80;;;-0.10;96.90;;;;;;5045569;28;20492;-45
2022/01/25 08:41:49;;;;;;;66.93;19.50;;;0.10;97.20;;;;;;5059465;28;20485;-45
2022/01/25 08:44:15;;;;;;;74.23;34.07;;;0.20;97.10;;;;;;5058603;28;20482;-45
2022/01/25 08:46:42;;;;;;;113.40;29.47;;;0.40;97.00;;;;;;5054412;28;20527;-45
2022/01/25 08:49:09;;;;;;;99.73;26.50;;;0.60;96.90;;;;;;5058475;28;20547;-45
2022/01/25 08:51:36;;;;;;;73.40;21.80;;;0.70;96.80;;;;;;5030862;28;20914;-45
2022/01/25 08:54:03;;;;;;;103.17;25.13;;;0.70;96.60;;;;;;5037019;28;20537;-46
2022/01/25 08:56:31;;;;;;;85.73;22.80;;;0.80;96.30;;;;;;5025229;28;20491;-45
2022/01/25 08:58:58;;;;;;;129.17;33.17;;;0.90;96.40;;;;;;5019721;28;20546;-45
2022/01/25 09:01:26;;;;;;;112.47;23.87;;;0.90;96.40;;;;;;5028030;28;20547;-45
2022/01/25 09:03:54;;;;;;;94.50;22.67;;;1.00;96.30;;;;;;5025273;28;20557;-45
2022/01/25 09:06:21;;;;;;;168.77;28.93;;;1.10;96.40;;;;;;5043571;28;20508;-44
2022/01/25 09:08:50;;;;;;;90.70;24.27;;;1.00;96.50;;;;;;5030349;28;20915;-45
2022/01/25 09:11:17;;;;;;;153.03;28.53;;;1.10;96.40;;;;;;5039105;28;20478;-44
2022/01/25 09:13:45;;;;;;;84.70;25.23;;;1.20;96.60;;;;;;5034706;28;20481;-49
2022/01/25 09:16:11;;;;;;;113.13;31.43;;;1.20;96.40;;;;;;5021772;28;20497;-51
2022/01/25 09:18:38;;;;;;;106.83;23.00;;;1.20;96.40;;;;;;5049093;28;21235;-45
2022/01/25 09:21:05;;;;;;;93.67;24.47;;;1.20;96.60;;;;;;5045786;28;21434;-46
2022/01/25 09:23:32;;;;;;;75.90;21.23;;;1.20;96.60;;;;;;5061960;28;20481;-46
2022/01/25 09:25:59;;;;;;;61.33;18.30;;;1.20;96.40;;;;;;5055889;28;20491;-46
2022/01/25 09:28:26;;;;;;;73.77;19.20;;;1.20;96.40;;;;;;5057322;28;20489;-45
2022/01/25 09:30:54;;;;;;;47.87;17.80;;;1.30;96.60;;;;;;5060135;28;20543;-46
2022/01/25 09:33:21;;;;;;;58.33;18.60;;;1.30;96.60;;;;;;5058922;28;21268;-46
2022/01/25 09:35:48;;;;;;;76.20;21.13;;;1.30;96.50;;;;;;5059746;28;20495;-45
2022/01/25 09:38:15;;;;;;;41.17;17.33;;;1.40;96.80;;;;;;5057727;28;20873;-45
2022/01/25 09:40:42;;;;;;;57.60;19.00;;;1.50;96.80;;;;;;5049289;28;20910;-45
2022/01/25 09:43:08;;;;;;;46.00;20.80;;;1.50;96.80;;;;;;5056972;28;21198;-45
2022/01/25 09:45:37;;;;;;;87.30;21.17;;;1.70;96.90;;;;;;5067406;28;20468;-45
2022/01/25 09:48:06;;;;;;;71.13;21.47;;;1.80;96.60;;;;;;5063099;28;20478;-45
2022/01/25 09:50:34;;;;;;;73.07;25.30;;;1.80;96.40;;;;;;5060020;28;20684;-45
2022/01/25 09:53:02;;;;;;;79.60;27.70;;;1.90;96.70;;;;;;5062265;28;20474;-45
2022/01/25 09:55:32;;;;;;;67.83;25.30;;;2.00;96.60;;;;;;5053073;28;20516;-45
2022/01/25 09:57:59;;;;;;;53.00;24.40;;;2.00;96.50;;;;;;5031662;28;20546;-45
2022/01/25 10:00:29;;;;;;;51.43;23.03;;;2.10;96.40;;;;;;5041117;28;20540;-45
2022/01/25 10:03:03;;;;;;;98.97;25.47;;;2.20;96.50;;;;;;5060250;28;20488;-44
2022/01/25 10:05:35;;;;;;;66.47;24.83;;;2.20;96.40;;;;;;5055387;28;20472;-45
2022/01/25 10:08:04;;;;;;;88.93;24.47;;;2.20;95.70;;;;;;5054817;28;20481;-45
2022/01/25 10:10:32;;;;;;;43.63;18.77;;;2.00;95.70;;;;;;5053241;28;20583;-45
2022/01/25 10:13:10;;;;;;;66.80;23.17;;;2.00;96.50;;;;;;5057187;28;20486;-45
2022/01/25 10:15:37;;;;;;;65.47;19.47;;;2.00;96.40;;;;;;5061513;28;20492;-45
2022/01/25 10:18:05;;;;;;;105.30;24.53;;;1.90;96.30;;;;;;5047266;28;20532;-44
2022/01/25 10:20:36;;;;;;;68.50;20.67;;;1.90;96.70;;;;;;5058262;28;20539;-44
2022/01/25 10:23:06;;;;;;;62.57;21.53;;;1.90;96.70;;;;;;5052883;28;20497;-44
2022/01/25 10:25:36;;;;;;;62.83;20.23;;;1.90;96.50;;;;;;5046835;28;20482;-44
2022/01/25 10:28:04;;;;;;;67.10;21.13;;;1.90;96.50;;;;;;5039639;28;20482;-44
2022/01/25 10:30:39;;;;;;;87.43;24.70;;;1.90;96.40;;;;;;5038411;28;20611;-44
2022/01/25 10:33:27;;;;;;;110.43;26.57;;;1.90;96.80;;;;;;5058822;28;20500;-45
2022/01/25 10:35:56;;;;;;;61.47;21.77;;;2.00;96.70;;;;;;5035495;28;20486;-44
2022/01/25 10:38:26;;;;;;;101.20;26.83;;;2.20;96.70;;;;;;5041969;28;20538;-44
2022/01/25 10:40:59;;;;;;;98.43;23.80;;;2.10;96.40;;;;;;5060342;28;21241;-44
2022/01/25 10:43:28;;;;;;;53.57;19.60;;;2.10;96.80;;;;;;5047815;28;20522;-44
2022/01/25 10:46:11;;;;;;;72.43;22.73;;;2.00;96.60;;;;;;5050329;28;20494;-44
2022/01/25 10:48:38;;;;;;;251.10;95.03;;;;;;;;;;5056940;28;20523;-44
2022/01/25 10:51:09;;;;;;;74.73;23.80;;;2.00;96.60;;;;;;5059240;28;20471;-45
2022/01/25 10:53:36;;;;;;;90.93;25.10;;;1.90;96.60;;;;;;5058793;28;21010;-45
2022/01/25 10:56:04;;;;;;;51.57;20.40;;;;;;;;;;5053787;28;21209;-44
2022/01/25 10:58:31;;;;;;;75.70;20.73;;;2.00;96.90;;;;;;5062763;28;20992;-45
2022/01/25 11:00:59;;;;;;;129.50;35.47;;;;;;;;;;5047632;28;20541;-44
2022/01/25 11:03:28;;;;;;;238.80;51.53;;;;;;;;;;5064114;28;21228;-44
2022/01/25 11:05:55;;;;;;;365.33;73.53;;;;;;;;;;5044738;28;20488;-44
2022/01/25 11:08:27;;;;;;;374.17;40.53;;;;;;;;;;5029216;28;20491;-45
2022/01/25 11:10:57;;;;;;;233.17;31.23;;;;;;;;;;5021788;28;20488;-45
2022/01/25 11:13:36;;;;;;;290.07;28.97;;;;;;;;;;5029769;28;20479;-45
2022/01/25 11:16:05;;;;;;;272.53;34.87;;;;;;;;;;5036735;28;20494;-44
2022/01/25 11:18:33;;;;;;;253.37;37.60;;;;;;;;;;5039827;28;20491;-44
2022/01/25 11:21:00;;;;;;;325.63;36.93;;;;;;;;;;5052952;28;20489;-45
2022/01/25 11:23:32;;;;;;;181.43;24.47;;;;;;;;;;5055751;28;20477;-44
2022/01/25 11:26:00;;;;;;;382.03;44.80;;;;;;;;;;5056766;28;20490;-45
2022/01/25 11:28:27;;;;;;;390.40;149.60;;;;;;;;;;5060274;28;20485;-45
2022/01/25 11:30:54;;;;;;;317.30;32.87;;;;;;;;;;5065991;28;20525;-45
2022/01/25 11:33:21;;;;;;;255.87;41.73;;;;;;;;;;5048998;28;20544;-44
2022/01/25 11:35:50;;;;;;;198.50;31.83;;;;;;;;;;5065142;28;20501;-44
2022/01/25 11:38:27;;;;;;;529.50;92.07;;;;;;;;;;5060584;28;20484;-44
2022/01/25 11:40:56;;;;;;;202.87;46.30;;;;;;;;;;5059832;28;20480;-44
2022/01/25 11:43:23;;;;;;;352.77;56.33;;;;;;;;;;5038766;28;20515;-43
2022/01/25 11:45:50;;;;;;;259.23;36.83;;;;;;;;;;5050354;28;20476;-44
2022/01/25 11:48:20;;;;;;;494.17;53.70;;;;;;;;;;5048449;28;20493;-44
2022/01/25 11:50:47;;;;;;;198.43;30.80;;;;;;;;;;5059089;28;20482;-44
2022/01/25 11:53:15;;;;;;;565.97;77.53;;;2.50;97.40;;;;;;5049167;28;20533;-43
2022/01/25 11:55:46;;;;;;;259.43;57.47;;;;;;;;;;5064004;28;20480;-44
2022/01/25 11:58:16;;;;;;;408.17;61.53;;;;;;;;;;5062965;28;20481;-44
2022/01/25 12:00:44;;;;;;;337.97;64.30;;;;;;;;;;5050845;28;20490;-43
2022/01/25 12:03:26;;;;;;;470.37;51.50;;;;;;;;;;5047278;28;20486;-43
2022/01/25 12:05:55;;;;;;;238.00;29.60;;;;;;;;;;5051175;28;20481;-44
2022/01/25 12:08:27;;;;;;;348.83;41.17;;;;;;;;;;5053160;28;20527;-47
2022/01/25 12:11:05;;;;;;;221.03;33.50;;;;;;;;;;5062669;28;20501;-44
2022/01/25 12:13:33;;;;;;;318.83;36.73;;;;;;;;;;5058910;28;20544;-44
2022/01/25 12:16:19;;;;;;;171.43;28.37;;;;;;;;;;5055060;28;20547;-44
2022/01/25 12:18:53;;;;;;;272.83;32.73;;;;;;;;;;5053640;28;21002;-44
2022/01/25 12:21:35;;;;;;;361.33;45.40;;;;;;;;;;5059857;28;20486;-44
2022/01/25 12:24:16;;;;;;;234.03;32.53;;;;;;;;;;5050425;28;20557;-45
2022/01/25 12:26:59;;;;;;;242.63;27.07;;;2.40;97.60;;;;;;5054429;28;20579;-44
2022/01/25 12:29:38;;;;;;;236.47;28.57;;;;;;;;;;5054856;28;21247;-45
2022/01/25 12:32:25;;;;;;;278.30;36.83;;;;;;;;;;5057609;28;20492;-50
2022/01/25 12:35:06;;;;;;;235.77;32.67;;;;;;;;;;5055253;28;20482;-45
2022/01/25 12:37:54;;;;;;;271.63;52.43;;;;;;;;;;5020615;28;20984;-45
2022/01/25 12:40:35;;;;;;;212.07;41.20;;;;;;;;;;5032127;28;20489;-45
2022/01/25 12:43:04;;;;;;;403.77;75.97;;;;;;;;;;5031742;28;20546;-45
2022/01/25 12:45:35;;;;;;;218.00;37.23;;;;;;;;;;5034978;28;20890;-45
2022/01/25 12:48:03;;;;;;;347.67;69.33;;;;;;;;;;5051888;28;20486;-45
2022/01/25 12:50:30;;;;;;;155.30;30.50;;;;;;;;;;5061210;28;21064;-45
2022/01/25 12:52:59;;;;;;;299.40;36.23;;;;;;;;;;5048524;28;20573;-45
2022/01/25 12:55:28;;;;;;;288.63;45.30;;;;;;;;;;5057593;28;20492;-45
2022/01/25 12:57:55;;;;;;;106.30;30.37;;;2.80;97.60;;;;;;5021887;28;20556;-45
2022/01/25 13:00:27;;;;;;;91.20;31.63;;;2.80;97.60;;;;;;5040796;28;20502;-46
2022/01/25 13:03:11;;;;;;;78.63;28.80;;;2.90;97.70;;;;;;5019852;28;20584;-45
2022/01/25 13:05:41;;;;;;;101.43;40.20;;;3.00;97.70;;;;;;5029524;28;20486;-43
2022/01/25 13:08:28;;;;;;;108.83;32.80;;;3.10;97.70;;;;;;5026335;28;20528;-45
2022/01/25 13:11:16;;;;;;;35.90;16.70;;;3.00;97.10;;;;;;5035993;28;20491;-44
2022/01/25 13:13:59;;;;;;;71.90;25.00;;;2.80;97.50;;;;;;5031440;28;21021;-45
2022/01/25 13:16:42;;;;;;;64.63;25.10;;;2.90;97.80;;;;;;5013222;28;20521;-46
2022/01/25 13:19:10;;;;;;;62.63;28.50;;;3.00;97.70;;;;;;5021849;28;20491;-43
2022/01/25 13:21:43;;;;;;;64.63;28.20;;;3.10;97.80;;;;;;5037951;28;20927;-42
2022/01/25 13:24:12;;;;;;;67.47;27.37;;;3.20;97.50;;;;;;5016782;28;20487;-43
2022/01/25 13:26:53;;;;;;;52.03;23.53;;;3.20;97.30;;;;;;5023293;28;20492;-43
2022/01/25 13:32:13;;;;;;;51.20;22.57;;;3.20;97.50;;;;;;5035872;28;20596;-43
2022/01/25 13:34:41;;;;;;;60.23;25.83;;;3.30;97.20;;;;;;5040255;28;20493;-43
2022/01/25 13:37:19;;;;;;;104.80;30.50;;;3.10;97.10;;;;;;5040814;28;20482;-43
2022/01/25 13:39:56;;;;;;;66.87;28.10;;;2.80;97.80;;;;;;5052885;28;20479;-43
2022/01/25 13:42:29;;;;;;;65.70;30.90;;;2.80;98.10;;;;;;5055119;28;20512;-44
2022/01/25 13:47:58;;;;;;;65.97;28.63;;;3.00;98.30;;;;;;5056326;28;20493;-44
2022/01/25 13:50:27;;;;;;;68.27;28.20;;;3.20;98.10;;;;;;5039464;28;20560;-44
2022/01/25 13:52:54;;;;;;;67.53;26.30;;;3.30;98.00;;;;;;5049187;28;20481;-44
2022/01/25 13:55:21;;;;;;;63.50;28.73;;;3.30;97.80;;;;;;5045442;28;20555;-44
2022/01/25 13:57:48;;;;;;;81.93;27.33;;;3.30;97.90;;;;;;5054872;28;20490;-45
2022/01/25 14:00:15;;;;;;;69.33;29.03;;;3.40;97.90;;;;;;5048578;28;20485;-45
2022/01/25 14:02:42;;;;;;;70.43;27.83;;;3.40;97.80;;;;;;5053459;28;20477;-45
2022/01/25 14:05:09;;;;;;;126.20;44.10;;;3.50;97.60;;;;;;5036490;28;20488;-45
2022/01/25 14:07:38;;;;;;;69.90;29.17;;;3.50;97.50;;;;;;5056482;28;20474;-44
2022/01/25 14:10:12;;;;;;;54.63;23.47;;;3.40;97.40;;;;;;5048470;28;20483;-49
2022/01/25 14:23:46;;;;;;;78.70;27.37;;;3.30;98.00;;;;;;5043212;28;21074;-45
2022/01/25 14:26:14;;;;;;;77.83;27.30;;;3.40;98.00;;;;;;5046313;28;20487;-45
2022/01/25 14:28:46;;;;;;;65.97;27.17;;;3.40;98.00;;;;;;5042690;28;20484;-45
2022/01/25 14:31:17;;;;;;;76.03;31.20;;;3.50;97.80;;;;;;5031810;28;20526;-45
2022/01/25 14:33:51;;;;;;;78.20;28.67;;;3.60;97.90;;;;;;5012667;28;20475;-45
2022/01/25 14:36:18;;;;;;;72.07;30.37;;;3.70;97.90;;;;;;5051422;28;20478;-43
2022/01/25 14:38:47;;;;;;;98.53;32.70;;;3.80;97.90;;;;;;5056115;28;20471;-43
2022/01/25 14:41:15;;;;;;;166.53;40.20;;;3.80;97.80;;;;;;5055394;28;20518;-44